LAKE MOULTRIE OBSERVATION SITE SC US NWS current weather conditions

sailwx.info

Wind from 082 at 4 knots gusting 5

Air temperature 22.2° C

Last reported at 2020-Sep-28 14:30 UTC.
Time now 2020-Sep-28 15:46 UTC

Location: N 33°15' W 080°02'.
View on Google Maps.

See reports from other nearby stations

  
Tides and Currents Weather Stations Pressure Air Temp Water Temp Dewpoint Dewpoint Depression Visibility Wind Speed Wind Dir Waves Ship Positions
date/time (UTC)wind fromknots sea level pressurealtimeterstation pressurevisibilityair tempwater tempwave heightnotes
2020-Sep-28 14:30 082 4 gusting 5 22.2
2020-Sep-28 12:30 110 4 gusting 5 21.7
2020-Sep-28 11:30 077 5 gusting 6 21.7
2020-Sep-28 10:30 041 2 gusting 3 22.2
2020-Sep-28 09:30 359 2 gusting 3 21.7
2020-Sep-28 08:30 208 0 gusting 0 21.1
2020-Sep-28 05:30 152 1 gusting 2 21.7
2020-Sep-28 04:30 156 2 gusting 3 21.7
2020-Sep-28 03:30 159 2 gusting 3 21.7
2020-Sep-28 02:30 158 3 gusting 4 21.7
2020-Sep-28 01:30 170 0 gusting 3 21.7
2020-Sep-28 00:30 22.2
2020-Sep-27 23:30 22.4
2020-Sep-27 22:30 230 0 gusting 1 23.0
2020-Sep-27 21:30 281 4 gusting 5 24.4
2020-Sep-27 20:30 24.5
2020-Sep-27 19:30 306 2 gusting 2 25.0
2020-Sep-27 18:30 263 2 gusting 2 24.3
2020-Sep-27 17:30 296 2 gusting 3 23.3
2020-Sep-27 16:30 287 0 gusting 1 22.8
2020-Sep-27 13:30 351 4 gusting 5 20.5
2020-Sep-27 11:30 19.6
2020-Sep-27 10:30 001 5 gusting 5 20.6
2020-Sep-27 09:30 356 2 gusting 3 20.6
2020-Sep-27 08:30 300 3 gusting 4 20.6
2020-Sep-27 07:30 212 0 gusting 3 19.9
2020-Sep-27 06:30 216 1 gusting 3 20.0
2020-Sep-27 05:30 20.0
2020-Sep-27 04:30 096 0 gusting 1 20.6
2020-Sep-27 03:30 046 4 gusting 5 21.9
2020-Sep-27 02:30 007 6 gusting 8 22.2
2020-Sep-27 01:30 345 8 gusting 9 22.2
2020-Sep-27 00:30 340 8 gusting 10 22.4
2020-Sep-26 23:30 340 8 gusting 9 22.8
2020-Sep-26 22:30 332 7 gusting 9 23.9
2020-Sep-26 21:30 339 8 gusting 9 23.9
2020-Sep-26 20:30 360 6 gusting 8 23.9
2020-Sep-26 19:30 350 3 gusting 4 23.9
2020-Sep-26 18:30 328 4 gusting 5 22.8
2020-Sep-26 17:30 002 3 gusting 4 22.8
2020-Sep-26 16:30 003 7 gusting 9 22.2
2020-Sep-26 15:30 358 7 gusting 7 23.0